sensor_id;sensor_type;location;lat;lon;timestamp;temperature;humidity
4564;DHT22;2294;51.818;8.484;2023-02-21T00:02:32;16.30;99.90
4564;DHT22;2294;51.818;8.484;2023-02-21T00:05:16;16.30;99.90
4564;DHT22;2294;51.818;8.484;2023-02-21T00:08:01;16.30;99.90
4564;DHT22;2294;51.818;8.484;2023-02-21T00:10:45;16.40;99.90
4564;DHT22;2294;51.818;8.484;2023-02-21T00:13:33;16.30;99.90
4564;DHT22;2294;51.818;8.484;2023-02-21T00:16:18;16.40;99.90
4564;DHT22;2294;51.818;8.484;2023-02-21T00:19:03;16.40;99.90
4564;DHT22;2294;51.818;8.484;2023-02-21T00:21:47;16.40;99.90
4564;DHT22;2294;51.818;8.484;2023-02-21T00:24:32;16.40;99.90
4564;DHT22;2294;51.818;8.484;2023-02-21T00:27:17;16.50;99.90
4564;DHT22;2294;51.818;8.484;2023-02-21T00:30:02;16.50;99.90
4564;DHT22;2294;51.818;8.484;2023-02-21T00:32:47;16.50;99.90
4564;DHT22;2294;51.818;8.484;2023-02-21T00:35:31;16.60;99.90
4564;DHT22;2294;51.818;8.484;2023-02-21T00:38:15;16.60;99.90
4564;DHT22;2294;51.818;8.484;2023-02-21T00:40:59;16.50;99.90
4564;DHT22;2294;51.818;8.484;2023-02-21T00:43:44;16.60;99.90
4564;DHT22;2294;51.818;8.484;2023-02-21T00:46:29;16.60;99.90
4564;DHT22;2294;51.818;8.484;2023-02-21T00:49:13;16.60;99.90
4564;DHT22;2294;51.818;8.484;2023-02-21T00:51:57;16.60;99.90
4564;DHT22;2294;51.818;8.484;2023-02-21T00:54:42;16.60;99.90
4564;DHT22;2294;51.818;8.484;2023-02-21T00:57:26;16.60;99.90
4564;DHT22;2294;51.818;8.484;2023-02-21T01:00:15;16.50;99.90
4564;DHT22;2294;51.818;8.484;2023-02-21T01:03:01;16.60;99.90
4564;DHT22;2294;51.818;8.484;2023-02-21T01:05:45;16.50;99.90
4564;DHT22;2294;51.818;8.484;2023-02-21T01:08:30;16.50;99.90
4564;DHT22;2294;51.818;8.484;2023-02-21T01:11:15;16.50;99.90
4564;DHT22;2294;51.818;8.484;2023-02-21T01:14:00;16.50;99.90
4564;DHT22;2294;51.818;8.484;2023-02-21T01:16:45;16.50;99.90
4564;DHT22;2294;51.818;8.484;2023-02-21T01:19:30;16.50;99.90
4564;DHT22;2294;51.818;8.484;2023-02-21T01:22:15;16.50;99.90
4564;DHT22;2294;51.818;8.484;2023-02-21T01:24:59;16.50;99.90
4564;DHT22;2294;51.818;8.484;2023-02-21T01:27:43;16.40;99.90
4564;DHT22;2294;51.818;8.484;2023-02-21T01:30:27;16.50;99.90
4564;DHT22;2294;51.818;8.484;2023-02-21T01:33:12;16.50;99.90
4564;DHT22;2294;51.818;8.484;2023-02-21T01:35:57;16.50;99.90
4564;DHT22;2294;51.818;8.484;2023-02-21T01:38:42;16.50;99.90
4564;DHT22;2294;51.818;8.484;2023-02-21T01:41:26;16.50;99.90
4564;DHT22;2294;51.818;8.484;2023-02-21T01:44:31;16.50;99.90
4564;DHT22;2294;51.818;8.484;2023-02-21T01:47:15;16.50;99.90
4564;DHT22;2294;51.818;8.484;2023-02-21T01:50:02;16.50;99.90
4564;DHT22;2294;51.818;8.484;2023-02-21T01:52:49;16.50;99.90
4564;DHT22;2294;51.818;8.484;2023-02-21T01:55:35;16.50;99.90
4564;DHT22;2294;51.818;8.484;2023-02-21T01:58:22;16.50;99.90
4564;DHT22;2294;51.818;8.484;2023-02-21T02:01:11;16.50;99.90
4564;DHT22;2294;51.818;8.484;2023-02-21T02:03:58;16.50;99.90
4564;DHT22;2294;51.818;8.484;2023-02-21T02:06:43;16.50;99.90
4564;DHT22;2294;51.818;8.484;2023-02-21T02:09:29;16.50;99.90
4564;DHT22;2294;51.818;8.484;2023-02-21T02:15:41;16.50;99.90
4564;DHT22;2294;51.818;8.484;2023-02-21T02:18:45;16.50;99.90
4564;DHT22;2294;51.818;8.484;2023-02-21T02:24:36;16.50;99.90
4564;DHT22;2294;51.818;8.484;2023-02-21T02:27:31;16.60;99.90
4564;DHT22;2294;51.818;8.484;2023-02-21T02:33:34;16.50;99.90
4564;DHT22;2294;51.818;8.484;2023-02-21T02:36:06;16.50;99.90
4564;DHT22;2294;51.818;8.484;2023-02-21T02:38:38;16.60;99.90
4564;DHT22;2294;51.818;8.484;2023-02-21T02:41:30;16.60;99.90
4564;DHT22;2294;51.818;8.484;2023-02-21T02:44:05;16.60;99.90
4564;DHT22;2294;51.818;8.484;2023-02-21T02:46:36;16.70;99.90
4564;DHT22;2294;51.818;8.484;2023-02-21T02:49:06;16.60;99.90
4564;DHT22;2294;51.818;8.484;2023-02-21T02:51:36;16.60;99.90
4564;DHT22;2294;51.818;8.484;2023-02-21T02:54:10;16.60;99.90
4564;DHT22;2294;51.818;8.484;2023-02-21T02:56:37;16.60;99.90
4564;DHT22;2294;51.818;8.484;2023-02-21T02:59:06;16.60;99.90
4564;DHT22;2294;51.818;8.484;2023-02-21T03:01:58;16.60;99.90
4564;DHT22;2294;51.818;8.484;2023-02-21T03:07:33;16.70;99.90
4564;DHT22;2294;51.818;8.484;2023-02-21T03:10:09;16.70;99.90
4564;DHT22;2294;51.818;8.484;2023-02-21T03:12:43;16.70;99.90
4564;DHT22;2294;51.818;8.484;2023-02-21T03:15:14;16.70;99.90
4564;DHT22;2294;51.818;8.484;2023-02-21T03:17:45;16.70;99.90
4564;DHT22;2294;51.818;8.484;2023-02-21T03:20:15;16.70;99.90
4564;DHT22;2294;51.818;8.484;2023-02-21T03:22:45;16.70;99.90
4564;DHT22;2294;51.818;8.484;2023-02-21T03:25:13;16.70;99.90
4564;DHT22;2294;51.818;8.484;2023-02-21T03:27:41;16.70;99.90
4564;DHT22;2294;51.818;8.484;2023-02-21T03:30:10;16.70;99.90
4564;DHT22;2294;51.818;8.484;2023-02-21T03:32:39;16.70;99.90
4564;DHT22;2294;51.818;8.484;2023-02-21T03:35:08;16.80;99.90
4564;DHT22;2294;51.818;8.484;2023-02-21T03:37:37;16.80;99.90
4564;DHT22;2294;51.818;8.484;2023-02-21T03:40:07;16.80;99.90
4564;DHT22;2294;51.818;8.484;2023-02-21T03:42:34;16.80;99.90
4564;DHT22;2294;51.818;8.484;2023-02-21T03:45:01;16.80;99.90
4564;DHT22;2294;51.818;8.484;2023-02-21T03:47:28;16.80;99.90
4564;DHT22;2294;51.818;8.484;2023-02-21T03:49:55;16.90;99.90
4564;DHT22;2294;51.818;8.484;2023-02-21T03:52:22;16.80;99.90
4564;DHT22;2294;51.818;8.484;2023-02-21T03:54:49;16.90;99.90
4564;DHT22;2294;51.818;8.484;2023-02-21T03:57:17;16.90;99.90
4564;DHT22;2294;51.818;8.484;2023-02-21T03:59:44;16.90;99.90
4564;DHT22;2294;51.818;8.484;2023-02-21T04:02:11;16.90;99.90
4564;DHT22;2294;51.818;8.484;2023-02-21T04:04:38;16.90;99.90
4564;DHT22;2294;51.818;8.484;2023-02-21T04:07:04;16.90;99.90
4564;DHT22;2294;51.818;8.484;2023-02-21T04:09:31;17.00;99.90
4564;DHT22;2294;51.818;8.484;2023-02-21T04:11:58;17.00;99.90
4564;DHT22;2294;51.818;8.484;2023-02-21T04:14:27;17.00;99.90
4564;DHT22;2294;51.818;8.484;2023-02-21T04:16:53;17.00;99.90
4564;DHT22;2294;51.818;8.484;2023-02-21T04:19:20;17.00;99.90
4564;DHT22;2294;51.818;8.484;2023-02-21T04:21:47;17.00;99.90
4564;DHT22;2294;51.818;8.484;2023-02-21T04:24:14;17.10;99.90
4564;DHT22;2294;51.818;8.484;2023-02-21T04:26:41;17.10;99.90
4564;DHT22;2294;51.818;8.484;2023-02-21T04:29:08;17.00;99.90
4564;DHT22;2294;51.818;8.484;2023-02-21T04:31:37;17.10;99.90
4564;DHT22;2294;51.818;8.484;2023-02-21T04:34:03;17.10;99.90
4564;DHT22;2294;51.818;8.484;2023-02-21T04:36:30;17.10;99.90
4564;DHT22;2294;51.818;8.484;2023-02-21T04:38:57;17.10;99.90
4564;DHT22;2294;51.818;8.484;2023-02-21T04:41:24;17.10;99.90
4564;DHT22;2294;51.818;8.484;2023-02-21T04:43:51;17.20;99.90
4564;DHT22;2294;51.818;8.484;2023-02-21T04:46:18;17.20;99.90
4564;DHT22;2294;51.818;8.484;2023-02-21T04:48:49;17.20;99.90
4564;DHT22;2294;51.818;8.484;2023-02-21T04:51:18;17.20;99.90
4564;DHT22;2294;51.818;8.484;2023-02-21T04:53:48;17.20;99.90
4564;DHT22;2294;51.818;8.484;2023-02-21T04:56:16;17.30;99.90
4564;DHT22;2294;51.818;8.484;2023-02-21T04:58:44;17.30;99.90
4564;DHT22;2294;51.818;8.484;2023-02-21T05:01:11;17.30;99.90
4564;DHT22;2294;51.818;8.484;2023-02-21T05:03:38;17.40;99.90
4564;DHT22;2294;51.818;8.484;2023-02-21T05:06:06;17.40;99.90
4564;DHT22;2294;51.818;8.484;2023-02-21T05:08:35;18.00;99.90
4564;DHT22;2294;51.818;8.484;2023-02-21T05:11:02;18.50;99.90
4564;DHT22;2294;51.818;8.484;2023-02-21T05:13:29;18.50;99.90
4564;DHT22;2294;51.818;8.484;2023-02-21T05:15:56;18.40;99.90
4564;DHT22;2294;51.818;8.484;2023-02-21T05:18:22;18.50;99.90
4564;DHT22;2294;51.818;8.484;2023-02-21T05:20:52;18.40;99.90
4564;DHT22;2294;51.818;8.484;2023-02-21T05:23:21;18.40;99.90
4564;DHT22;2294;51.818;8.484;2023-02-21T05:25:58;18.50;99.90
4564;DHT22;2294;51.818;8.484;2023-02-21T05:28:25;18.40;99.90
4564;DHT22;2294;51.818;8.484;2023-02-21T05:30:53;18.50;99.90
4564;DHT22;2294;51.818;8.484;2023-02-21T05:33:20;18.50;99.90
4564;DHT22;2294;51.818;8.484;2023-02-21T05:35:47;18.60;99.90
4564;DHT22;2294;51.818;8.484;2023-02-21T05:38:14;18.60;99.90
4564;DHT22;2294;51.818;8.484;2023-02-21T05:40:43;18.70;99.90
4564;DHT22;2294;51.818;8.484;2023-02-21T05:43:10;18.70;99.90
4564;DHT22;2294;51.818;8.484;2023-02-21T05:45:37;18.80;99.90
4564;DHT22;2294;51.818;8.484;2023-02-21T05:48:04;18.80;99.90
4564;DHT22;2294;51.818;8.484;2023-02-21T05:50:31;18.90;99.90
4564;DHT22;2294;51.818;8.484;2023-02-21T05:52:59;19.00;99.90
4564;DHT22;2294;51.818;8.484;2023-02-21T05:55:27;19.00;99.90
4564;DHT22;2294;51.818;8.484;2023-02-21T05:57:55;19.10;99.90
4564;DHT22;2294;51.818;8.484;2023-02-21T06:00:25;19.10;99.90
4564;DHT22;2294;51.818;8.484;2023-02-21T06:02:53;19.10;99.90
4564;DHT22;2294;51.818;8.484;2023-02-21T06:05:21;19.10;99.90
4564;DHT22;2294;51.818;8.484;2023-02-21T06:07:48;19.10;99.90
4564;DHT22;2294;51.818;8.484;2023-02-21T06:10:16;19.30;99.90
4564;DHT22;2294;51.818;8.484;2023-02-21T06:12:43;19.30;99.90
4564;DHT22;2294;51.818;8.484;2023-02-21T06:15:12;19.30;99.90
4564;DHT22;2294;51.818;8.484;2023-02-21T06:17:39;19.30;99.90
4564;DHT22;2294;51.818;8.484;2023-02-21T06:20:07;19.30;99.90
4564;DHT22;2294;51.818;8.484;2023-02-21T06:22:34;19.50;99.90
4564;DHT22;2294;51.818;8.484;2023-02-21T06:25:01;19.50;99.90
4564;DHT22;2294;51.818;8.484;2023-02-21T06:27:28;19.50;99.90
4564;DHT22;2294;51.818;8.484;2023-02-21T06:29:55;19.60;99.90
4564;DHT22;2294;51.818;8.484;2023-02-21T06:32:23;19.50;99.90
4564;DHT22;2294;51.818;8.484;2023-02-21T06:34:50;19.60;99.90
4564;DHT22;2294;51.818;8.484;2023-02-21T06:37:17;19.60;99.90
4564;DHT22;2294;51.818;8.484;2023-02-21T06:39:44;19.60;99.90
4564;DHT22;2294;51.818;8.484;2023-02-21T06:42:12;19.70;99.90
4564;DHT22;2294;51.818;8.484;2023-02-21T06:44:39;19.70;99.90
4564;DHT22;2294;51.818;8.484;2023-02-21T06:47:06;19.70;99.90
4564;DHT22;2294;51.818;8.484;2023-02-21T06:49:34;19.70;99.90
4564;DHT22;2294;51.818;8.484;2023-02-21T06:52:01;19.80;99.90
4564;DHT22;2294;51.818;8.484;2023-02-21T06:54:28;19.80;99.90
4564;DHT22;2294;51.818;8.484;2023-02-21T06:56:55;19.80;99.90
4564;DHT22;2294;51.818;8.484;2023-02-21T06:59:23;19.80;99.90
4564;DHT22;2294;51.818;8.484;2023-02-21T07:01:50;19.90;99.90
4564;DHT22;2294;51.818;8.484;2023-02-21T07:04:17;19.90;99.90
4564;DHT22;2294;51.818;8.484;2023-02-21T07:06:45;19.90;99.90
4564;DHT22;2294;51.818;8.484;2023-02-21T07:09:12;19.90;99.90
4564;DHT22;2294;51.818;8.484;2023-02-21T07:11:40;19.90;99.90
4564;DHT22;2294;51.818;8.484;2023-02-21T07:14:07;20.00;99.90
4564;DHT22;2294;51.818;8.484;2023-02-21T07:16:34;20.00;99.90
4564;DHT22;2294;51.818;8.484;2023-02-21T07:19:00;20.10;99.90
4564;DHT22;2294;51.818;8.484;2023-02-21T07:21:27;20.00;99.90
4564;DHT22;2294;51.818;8.484;2023-02-21T07:23:56;19.90;99.90
4564;DHT22;2294;51.818;8.484;2023-02-21T07:26:23;20.00;99.90
4564;DHT22;2294;51.818;8.484;2023-02-21T07:28:50;20.10;99.90
4564;DHT22;2294;51.818;8.484;2023-02-21T07:31:16;20.00;99.90
4564;DHT22;2294;51.818;8.484;2023-02-21T07:33:44;19.90;99.90
4564;DHT22;2294;51.818;8.484;2023-02-21T07:36:11;20.00;99.90
4564;DHT22;2294;51.818;8.484;2023-02-21T07:38:38;20.00;99.90
4564;DHT22;2294;51.818;8.484;2023-02-21T07:41:06;20.00;99.90
4564;DHT22;2294;51.818;8.484;2023-02-21T07:43:33;20.00;99.90
4564;DHT22;2294;51.818;8.484;2023-02-21T07:46:00;20.00;99.90
4564;DHT22;2294;51.818;8.484;2023-02-21T07:48:27;20.10;99.90
4564;DHT22;2294;51.818;8.484;2023-02-21T07:50:54;20.00;99.90
4564;DHT22;2294;51.818;8.484;2023-02-21T07:53:21;20.00;99.90
4564;DHT22;2294;51.818;8.484;2023-02-21T07:55:48;19.90;99.90
4564;DHT22;2294;51.818;8.484;2023-02-21T07:58:16;20.00;99.90
4564;DHT22;2294;51.818;8.484;2023-02-21T08:00:43;20.00;99.90
4564;DHT22;2294;51.818;8.484;2023-02-21T08:03:11;20.00;99.90
4564;DHT22;2294;51.818;8.484;2023-02-21T08:05:39;20.00;99.90
4564;DHT22;2294;51.818;8.484;2023-02-21T08:08:06;19.90;99.90
4564;DHT22;2294;51.818;8.484;2023-02-21T08:10:34;20.00;99.90
4564;DHT22;2294;51.818;8.484;2023-02-21T08:13:01;20.00;99.90
4564;DHT22;2294;51.818;8.484;2023-02-21T08:15:29;20.00;99.90
4564;DHT22;2294;51.818;8.484;2023-02-21T08:17:56;20.10;99.90
4564;DHT22;2294;51.818;8.484;2023-02-21T08:20:23;20.10;99.90
4564;DHT22;2294;51.818;8.484;2023-02-21T08:22:50;20.00;99.90
4564;DHT22;2294;51.818;8.484;2023-02-21T08:25:17;20.10;99.90
4564;DHT22;2294;51.818;8.484;2023-02-21T08:27:44;20.00;99.90
4564;DHT22;2294;51.818;8.484;2023-02-21T08:30:15;20.00;99.90
4564;DHT22;2294;51.818;8.484;2023-02-21T08:32:44;20.00;99.90
4564;DHT22;2294;51.818;8.484;2023-02-21T08:35:13;20.00;99.90
4564;DHT22;2294;51.818;8.484;2023-02-21T08:37:43;20.00;99.90
4564;DHT22;2294;51.818;8.484;2023-02-21T08:40:11;20.00;99.90
4564;DHT22;2294;51.818;8.484;2023-02-21T08:42:38;20.00;99.90
4564;DHT22;2294;51.818;8.484;2023-02-21T08:45:06;20.00;99.90
4564;DHT22;2294;51.818;8.484;2023-02-21T08:47:35;19.90;99.90
4564;DHT22;2294;51.818;8.484;2023-02-21T08:50:05;20.00;99.90
4564;DHT22;2294;51.818;8.484;2023-02-21T08:52:31;20.00;99.90
4564;DHT22;2294;51.818;8.484;2023-02-21T08:54:58;20.10;99.90
4564;DHT22;2294;51.818;8.484;2023-02-21T08:57:25;19.90;99.90
4564;DHT22;2294;51.818;8.484;2023-02-21T08:59:52;19.90;99.90
4564;DHT22;2294;51.818;8.484;2023-02-21T09:02:22;19.90;99.90
4564;DHT22;2294;51.818;8.484;2023-02-21T09:04:50;20.00;99.90
4564;DHT22;2294;51.818;8.484;2023-02-21T09:07:20;19.90;99.90
4564;DHT22;2294;51.818;8.484;2023-02-21T09:09:47;20.00;99.90
4564;DHT22;2294;51.818;8.484;2023-02-21T09:12:14;19.90;99.90
4564;DHT22;2294;51.818;8.484;2023-02-21T09:14:42;19.90;99.90
4564;DHT22;2294;51.818;8.484;2023-02-21T09:17:11;19.90;99.90
4564;DHT22;2294;51.818;8.484;2023-02-21T09:19:40;20.00;99.90
4564;DHT22;2294;51.818;8.484;2023-02-21T09:22:07;19.90;99.90
4564;DHT22;2294;51.818;8.484;2023-02-21T09:24:37;19.90;99.90
4564;DHT22;2294;51.818;8.484;2023-02-21T09:27:05;19.80;99.90
4564;DHT22;2294;51.818;8.484;2023-02-21T09:29:33;19.90;99.90
4564;DHT22;2294;51.818;8.484;2023-02-21T09:32:01;19.90;99.90
4564;DHT22;2294;51.818;8.484;2023-02-21T09:34:29;20.00;99.90
4564;DHT22;2294;51.818;8.484;2023-02-21T09:36:56;19.90;99.90
4564;DHT22;2294;51.818;8.484;2023-02-21T09:39:24;19.90;99.90
4564;DHT22;2294;51.818;8.484;2023-02-21T09:41:52;19.80;99.90
4564;DHT22;2294;51.818;8.484;2023-02-21T09:44:23;19.80;99.90
4564;DHT22;2294;51.818;8.484;2023-02-21T09:46:54;19.80;99.90
4564;DHT22;2294;51.818;8.484;2023-02-21T09:49:24;20.00;99.90
4564;DHT22;2294;51.818;8.484;2023-02-21T09:51:52;19.80;99.90
4564;DHT22;2294;51.818;8.484;2023-02-21T09:54:24;19.90;99.90
4564;DHT22;2294;51.818;8.484;2023-02-21T09:56:53;20.10;99.90
4564;DHT22;2294;51.818;8.484;2023-02-21T09:59:22;20.00;99.90
4564;DHT22;2294;51.818;8.484;2023-02-21T10:02:02;20.10;99.90
4564;DHT22;2294;51.818;8.484;2023-02-21T10:04:56;20.20;99.90
4564;DHT22;2294;51.818;8.484;2023-02-21T10:07:31;20.20;99.90
4564;DHT22;2294;51.818;8.484;2023-02-21T10:10:04;20.20;99.90
4564;DHT22;2294;51.818;8.484;2023-02-21T10:12:37;20.20;99.90
4564;DHT22;2294;51.818;8.484;2023-02-21T10:15:27;20.10;99.90
4564;DHT22;2294;51.818;8.484;2023-02-21T10:18:05;20.30;99.90
4564;DHT22;2294;51.818;8.484;2023-02-21T10:20:38;20.10;99.90
4564;DHT22;2294;51.818;8.484;2023-02-21T10:23:14;20.10;99.90
4564;DHT22;2294;51.818;8.484;2023-02-21T10:25:43;20.10;99.90
4564;DHT22;2294;51.818;8.484;2023-02-21T10:28:16;20.10;99.90
4564;DHT22;2294;51.818;8.484;2023-02-21T10:30:43;20.20;99.90
4564;DHT22;2294;51.818;8.484;2023-02-21T10:33:11;20.20;99.90
4564;DHT22;2294;51.818;8.484;2023-02-21T10:35:38;20.00;99.90
4564;DHT22;2294;51.818;8.484;2023-02-21T10:38:07;19.90;99.90
4564;DHT22;2294;51.818;8.484;2023-02-21T10:40:36;20.00;99.90
4564;DHT22;2294;51.818;8.484;2023-02-21T10:43:08;20.00;99.90
4564;DHT22;2294;51.818;8.484;2023-02-21T10:45:41;20.30;99.90
4564;DHT22;2294;51.818;8.484;2023-02-21T10:48:11;20.00;99.90
4564;DHT22;2294;51.818;8.484;2023-02-21T10:50:44;20.10;99.90
4564;DHT22;2294;51.818;8.484;2023-02-21T10:53:27;20.20;99.90
4564;DHT22;2294;51.818;8.484;2023-02-21T10:58:56;20.00;99.90
4564;DHT22;2294;51.818;8.484;2023-02-21T11:01:36;20.00;99.90
4564;DHT22;2294;51.818;8.484;2023-02-21T11:04:06;19.80;99.90
4564;DHT22;2294;51.818;8.484;2023-02-21T11:06:35;19.90;99.90
4564;DHT22;2294;51.818;8.484;2023-02-21T11:09:28;19.80;99.90
4564;DHT22;2294;51.818;8.484;2023-02-21T11:12:01;19.80;99.90
4564;DHT22;2294;51.818;8.484;2023-02-21T11:14:29;19.60;99.90
4564;DHT22;2294;51.818;8.484;2023-02-21T11:17:13;19.70;99.90
4564;DHT22;2294;51.818;8.484;2023-02-21T11:19:49;19.70;99.90
4564;DHT22;2294;51.818;8.484;2023-02-21T11:22:19;19.60;99.90
4564;DHT22;2294;51.818;8.484;2023-02-21T11:24:55;19.40;99.90
4564;DHT22;2294;51.818;8.484;2023-02-21T11:27:24;19.60;99.90
4564;DHT22;2294;51.818;8.484;2023-02-21T11:29:52;19.70;99.90
4564;DHT22;2294;51.818;8.484;2023-02-21T11:32:24;19.80;99.90
4564;DHT22;2294;51.818;8.484;2023-02-21T11:35:00;19.70;99.90
4564;DHT22;2294;51.818;8.484;2023-02-21T11:37:28;19.60;99.90
4564;DHT22;2294;51.818;8.484;2023-02-21T11:39:57;19.60;99.90
4564;DHT22;2294;51.818;8.484;2023-02-21T11:42:27;19.50;99.90
4564;DHT22;2294;51.818;8.484;2023-02-21T11:45:11;19.30;99.90
4564;DHT22;2294;51.818;8.484;2023-02-21T11:47:45;19.10;99.90
4564;DHT22;2294;51.818;8.484;2023-02-21T11:50:20;19.10;99.90
4564;DHT22;2294;51.818;8.484;2023-02-21T11:52:51;18.80;99.90
4564;DHT22;2294;51.818;8.484;2023-02-21T11:55:22;18.90;99.90
4564;DHT22;2294;51.818;8.484;2023-02-21T11:57:58;19.00;99.90
4564;DHT22;2294;51.818;8.484;2023-02-21T12:00:34;18.90;99.90
4564;DHT22;2294;51.818;8.484;2023-02-21T12:03:17;18.90;99.90
4564;DHT22;2294;51.818;8.484;2023-02-21T12:05:54;18.90;99.90
4564;DHT22;2294;51.818;8.484;2023-02-21T12:08:36;18.90;99.90
4564;DHT22;2294;51.818;8.484;2023-02-21T12:11:13;18.80;99.90
4564;DHT22;2294;51.818;8.484;2023-02-21T12:13:49;18.50;99.90
4564;DHT22;2294;51.818;8.484;2023-02-21T12:16:24;18.40;99.90
4564;DHT22;2294;51.818;8.484;2023-02-21T12:19:05;18.40;99.90
4564;DHT22;2294;51.818;8.484;2023-02-21T12:24:43;18.20;99.90
4564;DHT22;2294;51.818;8.484;2023-02-21T12:27:17;18.20;99.90
4564;DHT22;2294;51.818;8.484;2023-02-21T12:29:55;18.00;99.90
4564;DHT22;2294;51.818;8.484;2023-02-21T12:32:39;17.90;99.90
4564;DHT22;2294;51.818;8.484;2023-02-21T12:35:33;18.00;99.90
4564;DHT22;2294;51.818;8.484;2023-02-21T12:38:06;18.20;99.90
4564;DHT22;2294;51.818;8.484;2023-02-21T12:40:39;17.90;99.90
4564;DHT22;2294;51.818;8.484;2023-02-21T12:43:23;17.80;99.90
4564;DHT22;2294;51.818;8.484;2023-02-21T12:45:58;17.90;99.90
4564;DHT22;2294;51.818;8.484;2023-02-21T12:48:31;17.70;99.90
4564;DHT22;2294;51.818;8.484;2023-02-21T12:51:03;17.60;99.90
4564;DHT22;2294;51.818;8.484;2023-02-21T12:53:36;17.60;99.90
4564;DHT22;2294;51.818;8.484;2023-02-21T12:56:08;17.60;99.90
4564;DHT22;2294;51.818;8.484;2023-02-21T12:58:40;17.70;99.90
4564;DHT22;2294;51.818;8.484;2023-02-21T13:01:13;17.60;99.90
4564;DHT22;2294;51.818;8.484;2023-02-21T13:03:51;17.60;99.90
4564;DHT22;2294;51.818;8.484;2023-02-21T13:06:24;17.80;99.90
4564;DHT22;2294;51.818;8.484;2023-02-21T13:09:01;17.70;99.90
4564;DHT22;2294;51.818;8.484;2023-02-21T13:11:35;17.60;99.90
4564;DHT22;2294;51.818;8.484;2023-02-21T13:14:08;17.40;99.90
4564;DHT22;2294;51.818;8.484;2023-02-21T13:16:36;17.40;99.90
4564;DHT22;2294;51.818;8.484;2023-02-21T13:19:06;17.50;99.90
4564;DHT22;2294;51.818;8.484;2023-02-21T13:21:47;17.50;99.90
4564;DHT22;2294;51.818;8.484;2023-02-21T13:24:39;17.20;99.90
4564;DHT22;2294;51.818;8.484;2023-02-21T13:27:40;17.20;99.90
4564;DHT22;2294;51.818;8.484;2023-02-21T13:30:13;17.00;99.90
4564;DHT22;2294;51.818;8.484;2023-02-21T13:32:50;16.80;99.90
4564;DHT22;2294;51.818;8.484;2023-02-21T13:35:21;16.90;99.90
4564;DHT22;2294;51.818;8.484;2023-02-21T13:37:53;16.80;99.90
4564;DHT22;2294;51.818;8.484;2023-02-21T13:40:23;16.80;99.90
4564;DHT22;2294;51.818;8.484;2023-02-21T13:43:04;16.80;99.90
4564;DHT22;2294;51.818;8.484;2023-02-21T13:45:32;16.80;99.90
4564;DHT22;2294;51.818;8.484;2023-02-21T13:48:29;16.70;99.90
4564;DHT22;2294;51.818;8.484;2023-02-21T13:50:57;16.60;99.90
4564;DHT22;2294;51.818;8.484;2023-02-21T13:53:27;16.70;99.90
4564;DHT22;2294;51.818;8.484;2023-02-21T13:56:40;16.70;99.90
4564;DHT22;2294;51.818;8.484;2023-02-21T13:59:34;16.60;99.90
4564;DHT22;2294;51.818;8.484;2023-02-21T14:02:22;16.70;99.90
4564;DHT22;2294;51.818;8.484;2023-02-21T14:05:06;16.70;99.90
4564;DHT22;2294;51.818;8.484;2023-02-21T14:07:45;16.80;99.90
4564;DHT22;2294;51.818;8.484;2023-02-21T14:10:22;16.50;99.90
4564;DHT22;2294;51.818;8.484;2023-02-21T14:12:55;16.60;99.90
4564;DHT22;2294;51.818;8.484;2023-02-21T14:15:23;16.60;99.90
4564;DHT22;2294;51.818;8.484;2023-02-21T14:18:01;16.50;99.90
4564;DHT22;2294;51.818;8.484;2023-02-21T14:20:28;16.40;99.90
4564;DHT22;2294;51.818;8.484;2023-02-21T14:22:57;16.00;99.90
4564;DHT22;2294;51.818;8.484;2023-02-21T14:25:26;16.60;99.90
4564;DHT22;2294;51.818;8.484;2023-02-21T14:27:53;16.50;99.90
4564;DHT22;2294;51.818;8.484;2023-02-21T14:30:25;16.50;99.90
4564;DHT22;2294;51.818;8.484;2023-02-21T14:32:54;16.40;99.90
4564;DHT22;2294;51.818;8.484;2023-02-21T14:35:26;16.40;99.90
4564;DHT22;2294;51.818;8.484;2023-02-21T14:37:58;16.30;99.90
4564;DHT22;2294;51.818;8.484;2023-02-21T14:40:32;16.30;99.90
4564;DHT22;2294;51.818;8.484;2023-02-21T14:43:11;16.40;99.90
4564;DHT22;2294;51.818;8.484;2023-02-21T14:45:55;16.40;99.90
4564;DHT22;2294;51.818;8.484;2023-02-21T15:00:46;16.60;99.90
4564;DHT22;2294;51.818;8.484;2023-02-21T15:03:20;16.60;99.90
4564;DHT22;2294;51.818;8.484;2023-02-21T15:05:55;16.50;99.90
4564;DHT22;2294;51.818;8.484;2023-02-21T15:08:26;16.40;99.90
4564;DHT22;2294;51.818;8.484;2023-02-21T15:10:57;16.40;99.90
4564;DHT22;2294;51.818;8.484;2023-02-21T15:13:28;16.40;99.90
4564;DHT22;2294;51.818;8.484;2023-02-21T15:15:57;16.40;99.90
4564;DHT22;2294;51.818;8.484;2023-02-21T15:18:27;16.40;99.90
4564;DHT22;2294;51.818;8.484;2023-02-21T15:21:06;16.60;99.90
4564;DHT22;2294;51.818;8.484;2023-02-21T15:23:39;16.40;99.90
4564;DHT22;2294;51.818;8.484;2023-02-21T15:26:17;18.30;99.90
4564;DHT22;2294;51.818;8.484;2023-02-21T15:29:03;16.50;99.90
4564;DHT22;2294;51.818;8.484;2023-02-21T15:31:32;16.40;99.90
4564;DHT22;2294;51.818;8.484;2023-02-21T15:33:59;16.50;99.90
4564;DHT22;2294;51.818;8.484;2023-02-21T15:36:27;16.50;99.90
4564;DHT22;2294;51.818;8.484;2023-02-21T15:39:02;16.50;99.90
4564;DHT22;2294;51.818;8.484;2023-02-21T15:41:31;16.40;99.90
4564;DHT22;2294;51.818;8.484;2023-02-21T15:44:05;16.50;99.90
4564;DHT22;2294;51.818;8.484;2023-02-21T15:46:39;16.50;99.90
4564;DHT22;2294;51.818;8.484;2023-02-21T15:49:15;16.60;99.90
4564;DHT22;2294;51.818;8.484;2023-02-21T15:51:44;16.60;99.90
4564;DHT22;2294;51.818;8.484;2023-02-21T15:54:23;16.60;99.90
4564;DHT22;2294;51.818;8.484;2023-02-21T15:57:16;16.60;99.90
4564;DHT22;2294;51.818;8.484;2023-02-21T15:59:48;16.50;99.90
4564;DHT22;2294;51.818;8.484;2023-02-21T16:02:19;16.70;99.90
4564;DHT22;2294;51.818;8.484;2023-02-21T16:04:48;16.60;99.90
4564;DHT22;2294;51.818;8.484;2023-02-21T16:07:21;16.70;99.90
4564;DHT22;2294;51.818;8.484;2023-02-21T16:09:56;16.60;99.90
4564;DHT22;2294;51.818;8.484;2023-02-21T16:12:30;16.70;99.90
4564;DHT22;2294;51.818;8.484;2023-02-21T16:15:02;16.70;99.90
4564;DHT22;2294;51.818;8.484;2023-02-21T16:17:31;16.70;99.90
4564;DHT22;2294;51.818;8.484;2023-02-21T16:20:00;16.60;99.90
4564;DHT22;2294;51.818;8.484;2023-02-21T16:22:34;16.60;99.90
4564;DHT22;2294;51.818;8.484;2023-02-21T16:25:23;16.60;99.90
4564;DHT22;2294;51.818;8.484;2023-02-21T16:27:51;16.60;99.90
4564;DHT22;2294;51.818;8.484;2023-02-21T16:30:22;16.70;99.90
4564;DHT22;2294;51.818;8.484;2023-02-21T16:32:51;16.60;99.90
4564;DHT22;2294;51.818;8.484;2023-02-21T16:35:20;16.60;99.90
4564;DHT22;2294;51.818;8.484;2023-02-21T16:37:48;16.60;99.90
4564;DHT22;2294;51.818;8.484;2023-02-21T16:40:17;16.60;99.90
4564;DHT22;2294;51.818;8.484;2023-02-21T16:42:47;16.70;99.90
4564;DHT22;2294;51.818;8.484;2023-02-21T16:45:14;16.70;99.90
4564;DHT22;2294;51.818;8.484;2023-02-21T16:47:43;16.70;99.90
4564;DHT22;2294;51.818;8.484;2023-02-21T16:50:17;16.80;99.90
4564;DHT22;2294;51.818;8.484;2023-02-21T16:52:46;16.80;99.90
4564;DHT22;2294;51.818;8.484;2023-02-21T16:55:17;16.80;99.90
4564;DHT22;2294;51.818;8.484;2023-02-21T16:57:48;16.80;99.90
4564;DHT22;2294;51.818;8.484;2023-02-21T17:00:18;16.90;99.90
4564;DHT22;2294;51.818;8.484;2023-02-21T17:02:48;16.80;99.90
4564;DHT22;2294;51.818;8.484;2023-02-21T17:05:16;16.90;99.90
4564;DHT22;2294;51.818;8.484;2023-02-21T17:07:43;17.00;99.90
4564;DHT22;2294;51.818;8.484;2023-02-21T17:10:10;17.00;99.90
4564;DHT22;2294;51.818;8.484;2023-02-21T17:12:37;16.90;99.90